sensor_id;sensor_type;location;lat;lon;timestamp;temperature;humidity
22629;DHT22;11481;53.694;9.910;2023-02-28T00:00:50;5.50;99.90
22629;DHT22;11481;53.694;9.910;2023-02-28T00:03:16;5.50;99.90
22629;DHT22;11481;53.694;9.910;2023-02-28T00:05:43;5.50;99.90
22629;DHT22;11481;53.694;9.910;2023-02-28T00:08:10;5.50;99.90
22629;DHT22;11481;53.694;9.910;2023-02-28T00:10:38;5.50;99.90
22629;DHT22;11481;53.694;9.910;2023-02-28T00:13:06;5.50;99.90
22629;DHT22;11481;53.694;9.910;2023-02-28T00:15:33;5.50;99.90
22629;DHT22;11481;53.694;9.910;2023-02-28T00:18:00;5.50;99.90
22629;DHT22;11481;53.694;9.910;2023-02-28T00:20:26;5.60;99.90
22629;DHT22;11481;53.694;9.910;2023-02-28T00:22:54;5.60;99.90
22629;DHT22;11481;53.694;9.910;2023-02-28T00:25:24;5.60;99.90
22629;DHT22;11481;53.694;9.910;2023-02-28T00:27:51;5.50;99.90
22629;DHT22;11481;53.694;9.910;2023-02-28T00:30:20;5.30;99.90
22629;DHT22;11481;53.694;9.910;2023-02-28T00:32:48;5.10;99.90
22629;DHT22;11481;53.694;9.910;2023-02-28T00:35:15;5.20;99.90
22629;DHT22;11481;53.694;9.910;2023-02-28T00:37:43;5.30;99.90
22629;DHT22;11481;53.694;9.910;2023-02-28T00:40:10;5.40;99.90
22629;DHT22;11481;53.694;9.910;2023-02-28T00:42:38;5.40;99.90
22629;DHT22;11481;53.694;9.910;2023-02-28T00:45:05;5.40;99.90
22629;DHT22;11481;53.694;9.910;2023-02-28T00:47:32;5.40;99.90
22629;DHT22;11481;53.694;9.910;2023-02-28T00:49:59;5.40;99.90
22629;DHT22;11481;53.694;9.910;2023-02-28T00:52:26;5.50;99.90
22629;DHT22;11481;53.694;9.910;2023-02-28T00:54:52;5.40;99.90
22629;DHT22;11481;53.694;9.910;2023-02-28T00:57:19;5.40;99.90
22629;DHT22;11481;53.694;9.910;2023-02-28T00:59:46;5.50;99.90
22629;DHT22;11481;53.694;9.910;2023-02-28T01:02:12;5.40;99.90
22629;DHT22;11481;53.694;9.910;2023-02-28T01:04:39;5.40;99.90
22629;DHT22;11481;53.694;9.910;2023-02-28T01:07:06;5.30;99.90
22629;DHT22;11481;53.694;9.910;2023-02-28T01:09:32;5.10;99.90
22629;DHT22;11481;53.694;9.910;2023-02-28T01:11:59;5.10;99.90
22629;DHT22;11481;53.694;9.910;2023-02-28T01:14:26;5.10;99.90
22629;DHT22;11481;53.694;9.910;2023-02-28T01:16:53;5.20;99.90
22629;DHT22;11481;53.694;9.910;2023-02-28T01:19:20;5.20;99.90
22629;DHT22;11481;53.694;9.910;2023-02-28T01:21:46;5.30;99.90
22629;DHT22;11481;53.694;9.910;2023-02-28T01:24:13;5.30;99.90
22629;DHT22;11481;53.694;9.910;2023-02-28T01:26:40;5.30;99.90
22629;DHT22;11481;53.694;9.910;2023-02-28T01:29:06;5.30;99.90
22629;DHT22;11481;53.694;9.910;2023-02-28T01:31:33;5.30;99.90
22629;DHT22;11481;53.694;9.910;2023-02-28T01:34:00;5.30;99.90
22629;DHT22;11481;53.694;9.910;2023-02-28T01:36:26;5.20;99.90
22629;DHT22;11481;53.694;9.910;2023-02-28T01:38:53;5.20;99.90
22629;DHT22;11481;53.694;9.910;2023-02-28T01:41:23;5.20;99.90
22629;DHT22;11481;53.694;9.910;2023-02-28T01:44:05;5.20;99.90
22629;DHT22;11481;53.694;9.910;2023-02-28T01:46:34;5.20;99.90
22629;DHT22;11481;53.694;9.910;2023-02-28T01:49:08;5.20;99.90
22629;DHT22;11481;53.694;9.910;2023-02-28T01:51:41;5.10;99.90
22629;DHT22;11481;53.694;9.910;2023-02-28T01:54:16;5.00;99.90
22629;DHT22;11481;53.694;9.910;2023-02-28T01:56:53;5.00;99.90
22629;DHT22;11481;53.694;9.910;2023-02-28T01:59:37;5.00;99.90
22629;DHT22;11481;53.694;9.910;2023-02-28T02:02:07;5.10;99.90
22629;DHT22;11481;53.694;9.910;2023-02-28T02:04:41;5.10;99.90
22629;DHT22;11481;53.694;9.910;2023-02-28T02:07:09;5.10;99.90
22629;DHT22;11481;53.694;9.910;2023-02-28T02:09:36;5.10;99.90
22629;DHT22;11481;53.694;9.910;2023-02-28T02:12:20;5.10;99.90
22629;DHT22;11481;53.694;9.910;2023-02-28T02:15:15;5.10;99.90
22629;DHT22;11481;53.694;9.910;2023-02-28T02:17:46;5.00;99.90
22629;DHT22;11481;53.694;9.910;2023-02-28T02:20:56;5.00;99.90
22629;DHT22;11481;53.694;9.910;2023-02-28T02:24:48;5.00;99.90
22629;DHT22;11481;53.694;9.910;2023-02-28T02:27:16;5.00;99.90
22629;DHT22;11481;53.694;9.910;2023-02-28T02:35:46;4.90;99.90
22629;DHT22;11481;53.694;9.910;2023-02-28T02:38:20;4.90;99.90
22629;DHT22;11481;53.694;9.910;2023-02-28T02:41:33;4.90;99.90
22629;DHT22;11481;53.694;9.910;2023-02-28T02:44:11;4.90;99.90
22629;DHT22;11481;53.694;9.910;2023-02-28T02:46:43;4.80;99.90
22629;DHT22;11481;53.694;9.910;2023-02-28T02:49:18;4.80;99.90
22629;DHT22;11481;53.694;9.910;2023-02-28T02:51:48;4.80;99.90
22629;DHT22;11481;53.694;9.910;2023-02-28T02:54:19;4.80;99.90
22629;DHT22;11481;53.694;9.910;2023-02-28T02:56:48;4.90;99.90
22629;DHT22;11481;53.694;9.910;2023-02-28T02:59:18;4.90;99.90
22629;DHT22;11481;53.694;9.910;2023-02-28T03:01:53;4.80;99.90
22629;DHT22;11481;53.694;9.910;2023-02-28T03:04:23;4.90;99.90
22629;DHT22;11481;53.694;9.910;2023-02-28T03:06:51;4.90;99.90
22629;DHT22;11481;53.694;9.910;2023-02-28T03:09:25;4.80;99.90
22629;DHT22;11481;53.694;9.910;2023-02-28T03:11:55;4.80;99.90
22629;DHT22;11481;53.694;9.910;2023-02-28T03:23:03;4.60;99.90
22629;DHT22;11481;53.694;9.910;2023-02-28T03:31:05;4.70;99.90
22629;DHT22;11481;53.694;9.910;2023-02-28T03:33:39;4.60;99.90
22629;DHT22;11481;53.694;9.910;2023-02-28T03:36:12;4.40;99.90
22629;DHT22;11481;53.694;9.910;2023-02-28T03:38:49;4.40;99.90
22629;DHT22;11481;53.694;9.910;2023-02-28T03:41:22;4.40;99.90
22629;DHT22;11481;53.694;9.910;2023-02-28T03:43:56;4.40;99.90
22629;DHT22;11481;53.694;9.910;2023-02-28T03:46:27;4.40;99.90
22629;DHT22;11481;53.694;9.910;2023-02-28T03:49:12;4.40;99.90
22629;DHT22;11481;53.694;9.910;2023-02-28T03:51:42;4.40;99.90
22629;DHT22;11481;53.694;9.910;2023-02-28T03:54:17;4.30;99.90
22629;DHT22;11481;53.694;9.910;2023-02-28T03:56:51;4.20;99.90
22629;DHT22;11481;53.694;9.910;2023-02-28T03:59:25;4.30;99.90
22629;DHT22;11481;53.694;9.910;2023-02-28T04:01:52;4.30;99.90
22629;DHT22;11481;53.694;9.910;2023-02-28T04:04:19;4.30;99.90
22629;DHT22;11481;53.694;9.910;2023-02-28T04:06:50;4.20;99.90
22629;DHT22;11481;53.694;9.910;2023-02-28T04:09:17;4.30;99.90
22629;DHT22;11481;53.694;9.910;2023-02-28T04:11:52;4.20;99.90
22629;DHT22;11481;53.694;9.910;2023-02-28T04:14:19;4.20;99.90
22629;DHT22;11481;53.694;9.910;2023-02-28T04:16:46;4.10;99.90
22629;DHT22;11481;53.694;9.910;2023-02-28T04:19:13;4.10;99.90
22629;DHT22;11481;53.694;9.910;2023-02-28T04:21:46;4.10;99.90
22629;DHT22;11481;53.694;9.910;2023-02-28T04:24:18;4.10;99.90
22629;DHT22;11481;53.694;9.910;2023-02-28T04:26:47;4.00;99.90
22629;DHT22;11481;53.694;9.910;2023-02-28T04:29:28;4.00;99.90
22629;DHT22;11481;53.694;9.910;2023-02-28T04:31:56;3.90;99.90
22629;DHT22;11481;53.694;9.910;2023-02-28T04:34:28;3.90;99.90
22629;DHT22;11481;53.694;9.910;2023-02-28T04:36:55;3.90;99.90
22629;DHT22;11481;53.694;9.910;2023-02-28T04:39:38;3.80;99.90
22629;DHT22;11481;53.694;9.910;2023-02-28T04:42:05;3.80;99.90
22629;DHT22;11481;53.694;9.910;2023-02-28T04:44:32;3.80;99.90
22629;DHT22;11481;53.694;9.910;2023-02-28T04:46:59;3.70;99.90
22629;DHT22;11481;53.694;9.910;2023-02-28T04:49:26;3.70;99.90
22629;DHT22;11481;53.694;9.910;2023-02-28T04:51:52;3.60;99.90
22629;DHT22;11481;53.694;9.910;2023-02-28T04:54:19;3.40;99.90
22629;DHT22;11481;53.694;9.910;2023-02-28T04:56:46;3.10;99.90
22629;DHT22;11481;53.694;9.910;2023-02-28T04:59:15;3.00;99.90
22629;DHT22;11481;53.694;9.910;2023-02-28T05:01:46;3.00;99.90
22629;DHT22;11481;53.694;9.910;2023-02-28T05:04:13;2.90;99.90
22629;DHT22;11481;53.694;9.910;2023-02-28T05:06:39;2.90;99.90
22629;DHT22;11481;53.694;9.910;2023-02-28T05:09:06;3.00;99.90
22629;DHT22;11481;53.694;9.910;2023-02-28T05:11:34;3.00;99.90
22629;DHT22;11481;53.694;9.910;2023-02-28T05:14:13;3.10;99.90
22629;DHT22;11481;53.694;9.910;2023-02-28T05:16:40;3.10;99.90
22629;DHT22;11481;53.694;9.910;2023-02-28T05:19:06;3.10;99.90
22629;DHT22;11481;53.694;9.910;2023-02-28T05:21:36;3.10;99.90
22629;DHT22;11481;53.694;9.910;2023-02-28T05:24:06;2.90;99.90
22629;DHT22;11481;53.694;9.910;2023-02-28T05:26:40;2.90;99.90
22629;DHT22;11481;53.694;9.910;2023-02-28T05:29:08;2.90;99.90
22629;DHT22;11481;53.694;9.910;2023-02-28T05:31:36;2.90;99.90
22629;DHT22;11481;53.694;9.910;2023-02-28T05:34:02;2.90;99.90
22629;DHT22;11481;53.694;9.910;2023-02-28T05:36:31;2.80;99.90
22629;DHT22;11481;53.694;9.910;2023-02-28T05:38:58;2.70;99.90
22629;DHT22;11481;53.694;9.910;2023-02-28T05:41:25;2.80;99.90
22629;DHT22;11481;53.694;9.910;2023-02-28T05:43:53;2.80;99.90
22629;DHT22;11481;53.694;9.910;2023-02-28T05:46:19;2.80;99.90
22629;DHT22;11481;53.694;9.910;2023-02-28T05:48:47;2.80;99.90
22629;DHT22;11481;53.694;9.910;2023-02-28T05:51:15;2.80;99.90
22629;DHT22;11481;53.694;9.910;2023-02-28T05:53:41;2.80;99.90
22629;DHT22;11481;53.694;9.910;2023-02-28T05:56:08;2.80;99.90
22629;DHT22;11481;53.694;9.910;2023-02-28T05:58:35;2.80;99.90
22629;DHT22;11481;53.694;9.910;2023-02-28T06:01:24;2.70;99.90
22629;DHT22;11481;53.694;9.910;2023-02-28T06:03:51;2.70;99.90
22629;DHT22;11481;53.694;9.910;2023-02-28T06:06:18;2.60;99.90
22629;DHT22;11481;53.694;9.910;2023-02-28T06:08:44;2.60;99.90
22629;DHT22;11481;53.694;9.910;2023-02-28T06:11:12;2.60;99.90
22629;DHT22;11481;53.694;9.910;2023-02-28T06:13:39;2.60;99.90
22629;DHT22;11481;53.694;9.910;2023-02-28T06:16:06;2.50;99.90
22629;DHT22;11481;53.694;9.910;2023-02-28T06:18:34;2.60;99.90
22629;DHT22;11481;53.694;9.910;2023-02-28T06:21:01;2.60;99.90
22629;DHT22;11481;53.694;9.910;2023-02-28T06:23:27;2.50;99.90
22629;DHT22;11481;53.694;9.910;2023-02-28T06:25:54;2.50;99.90
22629;DHT22;11481;53.694;9.910;2023-02-28T06:28:25;2.50;99.90
22629;DHT22;11481;53.694;9.910;2023-02-28T06:30:52;2.50;99.90
22629;DHT22;11481;53.694;9.910;2023-02-28T06:33:19;2.50;99.90
22629;DHT22;11481;53.694;9.910;2023-02-28T06:35:52;2.50;99.90
22629;DHT22;11481;53.694;9.910;2023-02-28T06:38:20;2.50;99.90
22629;DHT22;11481;53.694;9.910;2023-02-28T06:40:56;2.50;99.90
22629;DHT22;11481;53.694;9.910;2023-02-28T06:43:24;2.50;99.90
22629;DHT22;11481;53.694;9.910;2023-02-28T06:45:55;2.50;99.90
22629;DHT22;11481;53.694;9.910;2023-02-28T06:48:23;2.40;99.90
22629;DHT22;11481;53.694;9.910;2023-02-28T06:50:51;2.50;99.90
22629;DHT22;11481;53.694;9.910;2023-02-28T06:53:18;2.40;99.90
22629;DHT22;11481;53.694;9.910;2023-02-28T06:55:46;2.40;99.90
22629;DHT22;11481;53.694;9.910;2023-02-28T06:58:13;2.40;99.90
22629;DHT22;11481;53.694;9.910;2023-02-28T07:00:50;2.40;99.90
22629;DHT22;11481;53.694;9.910;2023-02-28T07:03:16;2.40;99.90
22629;DHT22;11481;53.694;9.910;2023-02-28T07:05:45;2.40;99.90
22629;DHT22;11481;53.694;9.910;2023-02-28T07:08:12;2.50;99.90
22629;DHT22;11481;53.694;9.910;2023-02-28T07:10:41;2.50;99.90
22629;DHT22;11481;53.694;9.910;2023-02-28T07:13:08;2.50;99.90
22629;DHT22;11481;53.694;9.910;2023-02-28T07:15:37;2.50;99.90
22629;DHT22;11481;53.694;9.910;2023-02-28T07:18:08;2.60;99.90
22629;DHT22;11481;53.694;9.910;2023-02-28T07:20:36;2.60;99.90
22629;DHT22;11481;53.694;9.910;2023-02-28T07:23:03;2.70;99.90
22629;DHT22;11481;53.694;9.910;2023-02-28T07:25:30;2.70;99.90
22629;DHT22;11481;53.694;9.910;2023-02-28T07:27:57;2.70;99.90
22629;DHT22;11481;53.694;9.910;2023-02-28T07:30:25;2.70;99.90
22629;DHT22;11481;53.694;9.910;2023-02-28T07:32:52;2.70;99.90
22629;DHT22;11481;53.694;9.910;2023-02-28T07:35:21;2.80;99.90
22629;DHT22;11481;53.694;9.910;2023-02-28T07:37:48;2.80;99.90
22629;DHT22;11481;53.694;9.910;2023-02-28T07:40:15;2.90;99.90
22629;DHT22;11481;53.694;9.910;2023-02-28T07:42:44;3.00;99.90
22629;DHT22;11481;53.694;9.910;2023-02-28T07:45:11;3.00;99.90
22629;DHT22;11481;53.694;9.910;2023-02-28T07:47:38;3.10;99.90
22629;DHT22;11481;53.694;9.910;2023-02-28T07:50:08;3.20;99.90
22629;DHT22;11481;53.694;9.910;2023-02-28T07:52:38;3.20;99.90
22629;DHT22;11481;53.694;9.910;2023-02-28T07:55:07;3.20;99.90
22629;DHT22;11481;53.694;9.910;2023-02-28T07:57:34;3.20;99.90
22629;DHT22;11481;53.694;9.910;2023-02-28T08:00:02;3.30;99.90
22629;DHT22;11481;53.694;9.910;2023-02-28T08:02:33;3.30;99.90
22629;DHT22;11481;53.694;9.910;2023-02-28T08:05:00;3.40;99.90
22629;DHT22;11481;53.694;9.910;2023-02-28T08:07:27;3.50;99.90
22629;DHT22;11481;53.694;9.910;2023-02-28T08:09:54;3.60;99.90
22629;DHT22;11481;53.694;9.910;2023-02-28T08:12:21;3.60;99.90
22629;DHT22;11481;53.694;9.910;2023-02-28T08:14:48;3.60;99.90
22629;DHT22;11481;53.694;9.910;2023-02-28T08:17:15;3.60;99.90
22629;DHT22;11481;53.694;9.910;2023-02-28T08:19:41;3.60;99.90
22629;DHT22;11481;53.694;9.910;2023-02-28T08:22:08;3.70;99.90
22629;DHT22;11481;53.694;9.910;2023-02-28T08:24:35;3.70;99.90
22629;DHT22;11481;53.694;9.910;2023-02-28T08:27:01;3.70;99.90
22629;DHT22;11481;53.694;9.910;2023-02-28T08:29:28;3.90;99.90
22629;DHT22;11481;53.694;9.910;2023-02-28T08:31:56;3.90;99.90
22629;DHT22;11481;53.694;9.910;2023-02-28T08:34:24;4.00;99.90
22629;DHT22;11481;53.694;9.910;2023-02-28T08:36:51;4.10;99.90
22629;DHT22;11481;53.694;9.910;2023-02-28T08:39:17;4.20;99.90
22629;DHT22;11481;53.694;9.910;2023-02-28T08:41:46;4.20;99.90
22629;DHT22;11481;53.694;9.910;2023-02-28T08:44:18;4.30;99.90
22629;DHT22;11481;53.694;9.910;2023-02-28T08:46:45;4.30;99.90
22629;DHT22;11481;53.694;9.910;2023-02-28T08:49:12;4.20;99.90
22629;DHT22;11481;53.694;9.910;2023-02-28T08:51:39;4.20;99.90
22629;DHT22;11481;53.694;9.910;2023-02-28T08:54:08;4.30;99.90
22629;DHT22;11481;53.694;9.910;2023-02-28T08:56:35;4.30;99.90
22629;DHT22;11481;53.694;9.910;2023-02-28T08:59:02;4.50;99.90
22629;DHT22;11481;53.694;9.910;2023-02-28T09:01:30;4.60;99.90
22629;DHT22;11481;53.694;9.910;2023-02-28T09:03:58;4.70;99.90
22629;DHT22;11481;53.694;9.910;2023-02-28T09:06:26;4.80;99.90
22629;DHT22;11481;53.694;9.910;2023-02-28T09:08:56;4.80;99.90
22629;DHT22;11481;53.694;9.910;2023-02-28T09:11:25;4.80;99.90
22629;DHT22;11481;53.694;9.910;2023-02-28T09:13:51;4.90;99.90
22629;DHT22;11481;53.694;9.910;2023-02-28T09:16:18;5.00;99.90
22629;DHT22;11481;53.694;9.910;2023-02-28T09:18:45;5.00;99.90
22629;DHT22;11481;53.694;9.910;2023-02-28T09:21:14;5.10;99.90
22629;DHT22;11481;53.694;9.910;2023-02-28T09:23:43;5.00;99.90
22629;DHT22;11481;53.694;9.910;2023-02-28T09:26:18;5.10;99.90
22629;DHT22;11481;53.694;9.910;2023-02-28T09:28:46;5.10;99.90
22629;DHT22;11481;53.694;9.910;2023-02-28T09:31:16;5.20;99.90
22629;DHT22;11481;53.694;9.910;2023-02-28T09:33:43;5.40;99.90
22629;DHT22;11481;53.694;9.910;2023-02-28T09:36:10;5.40;99.90
22629;DHT22;11481;53.694;9.910;2023-02-28T09:38:36;5.50;99.90
22629;DHT22;11481;53.694;9.910;2023-02-28T09:41:11;5.50;99.90
22629;DHT22;11481;53.694;9.910;2023-02-28T09:43:43;5.70;99.90
22629;DHT22;11481;53.694;9.910;2023-02-28T09:46:27;5.70;99.90
22629;DHT22;11481;53.694;9.910;2023-02-28T09:48:56;5.80;99.90
22629;DHT22;11481;53.694;9.910;2023-02-28T09:51:28;5.70;99.90
22629;DHT22;11481;53.694;9.910;2023-02-28T09:53:56;5.80;99.90
22629;DHT22;11481;53.694;9.910;2023-02-28T09:56:32;6.00;99.90
22629;DHT22;11481;53.694;9.910;2023-02-28T10:06:50;6.30;99.90
22629;DHT22;11481;53.694;9.910;2023-02-28T10:09:24;6.30;99.90
22629;DHT22;11481;53.694;9.910;2023-02-28T10:11:56;6.20;99.90
22629;DHT22;11481;53.694;9.910;2023-02-28T10:14:26;6.20;99.90
22629;DHT22;11481;53.694;9.910;2023-02-28T10:17:04;6.20;99.90
22629;DHT22;11481;53.694;9.910;2023-02-28T10:19:51;6.30;99.90
22629;DHT22;11481;53.694;9.910;2023-02-28T10:24:54;6.70;99.90
22629;DHT22;11481;53.694;9.910;2023-02-28T10:27:25;6.80;99.90
22629;DHT22;11481;53.694;9.910;2023-02-28T10:29:56;6.70;99.90
22629;DHT22;11481;53.694;9.910;2023-02-28T10:32:29;6.70;99.90
22629;DHT22;11481;53.694;9.910;2023-02-28T10:37:43;6.70;99.90
22629;DHT22;11481;53.694;9.910;2023-02-28T10:46:02;7.20;99.90
22629;DHT22;11481;53.694;9.910;2023-02-28T10:49:01;7.30;99.90
22629;DHT22;11481;53.694;9.910;2023-02-28T10:51:39;7.40;99.90
22629;DHT22;11481;53.694;9.910;2023-02-28T10:54:34;7.50;99.90
22629;DHT22;11481;53.694;9.910;2023-02-28T10:57:22;7.50;99.90
22629;DHT22;11481;53.694;9.910;2023-02-28T10:59:53;7.80;99.90
22629;DHT22;11481;53.694;9.910;2023-02-28T11:02:37;7.70;99.90
22629;DHT22;11481;53.694;9.910;2023-02-28T11:08:15;7.90;99.90
22629;DHT22;11481;53.694;9.910;2023-02-28T11:10:47;7.60;99.90
22629;DHT22;11481;53.694;9.910;2023-02-28T11:13:20;7.50;99.90
22629;DHT22;11481;53.694;9.910;2023-02-28T11:15:57;7.50;99.90
22629;DHT22;11481;53.694;9.910;2023-02-28T11:18:32;7.50;99.90
22629;DHT22;11481;53.694;9.910;2023-02-28T11:21:02;7.50;99.90
22629;DHT22;11481;53.694;9.910;2023-02-28T11:23:31;7.50;99.90
22629;DHT22;11481;53.694;9.910;2023-02-28T11:26:03;7.50;99.90
22629;DHT22;11481;53.694;9.910;2023-02-28T11:28:32;7.50;99.90
22629;DHT22;11481;53.694;9.910;2023-02-28T11:33:55;7.60;99.90
22629;DHT22;11481;53.694;9.910;2023-02-28T11:36:27;7.70;99.90
22629;DHT22;11481;53.694;9.910;2023-02-28T11:38:59;7.80;99.90
22629;DHT22;11481;53.694;9.910;2023-02-28T11:46:51;8.00;99.90
22629;DHT22;11481;53.694;9.910;2023-02-28T11:52:20;8.00;99.90
22629;DHT22;11481;53.694;9.910;2023-02-28T11:54:58;8.20;99.90
22629;DHT22;11481;53.694;9.910;2023-02-28T11:58:04;8.20;99.90
22629;DHT22;11481;53.694;9.910;2023-02-28T12:03:45;8.20;99.90
22629;DHT22;11481;53.694;9.910;2023-02-28T12:09:47;8.80;99.90
22629;DHT22;11481;53.694;9.910;2023-02-28T12:17:36;9.40;99.90
22629;DHT22;11481;53.694;9.910;2023-02-28T12:20:33;9.40;99.90
22629;DHT22;11481;53.694;9.910;2023-02-28T12:23:21;9.50;99.90
22629;DHT22;11481;53.694;9.910;2023-02-28T12:28:34;9.90;99.90
22629;DHT22;11481;53.694;9.910;2023-02-28T12:31:11;10.00;99.90
22629;DHT22;11481;53.694;9.910;2023-02-28T12:33:51;10.10;99.90
22629;DHT22;11481;53.694;9.910;2023-02-28T12:36:20;10.20;99.90
22629;DHT22;11481;53.694;9.910;2023-02-28T12:39:12;10.20;99.90
22629;DHT22;11481;53.694;9.910;2023-02-28T12:41:51;10.30;99.90
22629;DHT22;11481;53.694;9.910;2023-02-28T12:44:44;10.20;99.90
22629;DHT22;11481;53.694;9.910;2023-02-28T12:47:17;10.30;99.90
22629;DHT22;11481;53.694;9.910;2023-02-28T12:49:51;9.90;99.90
22629;DHT22;11481;53.694;9.910;2023-02-28T12:52:25;9.60;99.90
22629;DHT22;11481;53.694;9.910;2023-02-28T12:57:48;9.30;99.90
22629;DHT22;11481;53.694;9.910;2023-02-28T13:00:19;9.50;99.90
22629;DHT22;11481;53.694;9.910;2023-02-28T13:04:04;9.70;99.90
22629;DHT22;11481;53.694;9.910;2023-02-28T13:11:40;9.90;99.90
22629;DHT22;11481;53.694;9.910;2023-02-28T13:22:47;9.90;99.90
22629;DHT22;11481;53.694;9.910;2023-02-28T13:25:56;9.70;99.90
22629;DHT22;11481;53.694;9.910;2023-02-28T13:31:17;9.60;99.90
22629;DHT22;11481;53.694;9.910;2023-02-28T13:38:54;10.00;99.90
22629;DHT22;11481;53.694;9.910;2023-02-28T13:44:21;10.70;99.90
22629;DHT22;11481;53.694;9.910;2023-02-28T13:49:26;10.70;99.90
22629;DHT22;11481;53.694;9.910;2023-02-28T14:03:03;9.70;99.90
22629;DHT22;11481;53.694;9.910;2023-02-28T14:05:34;9.80;99.90
22629;DHT22;11481;53.694;9.910;2023-02-28T14:08:08;9.80;99.90
22629;DHT22;11481;53.694;9.910;2023-02-28T14:10:52;9.70;99.90
22629;DHT22;11481;53.694;9.910;2023-02-28T14:13:44;9.90;99.90
22629;DHT22;11481;53.694;9.910;2023-02-28T14:16:15;10.10;99.90
22629;DHT22;11481;53.694;9.910;2023-02-28T14:19:00;10.30;99.90
22629;DHT22;11481;53.694;9.910;2023-02-28T14:21:36;10.80;99.90
22629;DHT22;11481;53.694;9.910;2023-02-28T14:27:31;11.00;99.90
22629;DHT22;11481;53.694;9.910;2023-02-28T14:31:03;10.40;99.90
22629;DHT22;11481;53.694;9.910;2023-02-28T14:36:03;10.20;99.90
22629;DHT22;11481;53.694;9.910;2023-02-28T14:38:44;10.20;99.90
22629;DHT22;11481;53.694;9.910;2023-02-28T14:41:30;10.30;99.90
22629;DHT22;11481;53.694;9.910;2023-02-28T14:43:59;10.10;99.90
22629;DHT22;11481;53.694;9.910;2023-02-28T14:46:38;10.20;99.90
22629;DHT22;11481;53.694;9.910;2023-02-28T14:49:06;10.60;99.90
22629;DHT22;11481;53.694;9.910;2023-02-28T14:51:36;10.90;99.90
22629;DHT22;11481;53.694;9.910;2023-02-28T14:54:03;10.80;99.90
22629;DHT22;11481;53.694;9.910;2023-02-28T14:56:35;10.80;99.90
22629;DHT22;11481;53.694;9.910;2023-02-28T14:59:04;11.00;99.90
22629;DHT22;11481;53.694;9.910;2023-02-28T15:01:32;10.90;99.90
22629;DHT22;11481;53.694;9.910;2023-02-28T15:04:05;11.00;99.90
22629;DHT22;11481;53.694;9.910;2023-02-28T15:06:32;11.20;99.90
22629;DHT22;11481;53.694;9.910;2023-02-28T15:09:16;11.40;99.90
22629;DHT22;11481;53.694;9.910;2023-02-28T15:11:47;11.50;99.90
22629;DHT22;11481;53.694;9.910;2023-02-28T15:14:20;11.70;99.90
22629;DHT22;11481;53.694;9.910;2023-02-28T15:16:52;11.80;99.90
22629;DHT22;11481;53.694;9.910;2023-02-28T15:19:30;11.90;99.90
22629;DHT22;11481;53.694;9.910;2023-02-28T15:22:03;11.80;99.90
22629;DHT22;11481;53.694;9.910;2023-02-28T15:24:42;12.10;99.90
22629;DHT22;11481;53.694;9.910;2023-02-28T15:27:15;12.30;99.90
22629;DHT22;11481;53.694;9.910;2023-02-28T15:29:55;12.40;99.90
22629;DHT22;11481;53.694;9.910;2023-02-28T15:32:35;12.40;99.90
22629;DHT22;11481;53.694;9.910;2023-02-28T15:46:01;12.60;99.90
22629;DHT22;11481;53.694;9.910;2023-02-28T15:48:31;12.30;99.90
22629;DHT22;11481;53.694;9.910;2023-02-28T15:51:17;12.00;99.90
22629;DHT22;11481;53.694;9.910;2023-02-28T15:53:48;12.10;99.90
22629;DHT22;11481;53.694;9.910;2023-02-28T15:58:56;12.50;99.90
22629;DHT22;11481;53.694;9.910;2023-02-28T16:01:37;12.60;99.90
22629;DHT22;11481;53.694;9.910;2023-02-28T16:04:06;12.80;99.90
22629;DHT22;11481;53.694;9.910;2023-02-28T16:09:25;13.00;99.90
22629;DHT22;11481;53.694;9.910;2023-02-28T16:11:56;13.10;99.90
22629;DHT22;11481;53.694;9.910;2023-02-28T16:14:25;13.20;99.90
22629;DHT22;11481;53.694;9.910;2023-02-28T16:16:56;13.40;99.90
22629;DHT22;11481;53.694;9.910;2023-02-28T16:19:23;13.50;99.90
22629;DHT22;11481;53.694;9.910;2023-02-28T16:21:50;13.60;99.90
22629;DHT22;11481;53.694;9.910;2023-02-28T16:24:17;13.60;99.90
22629;DHT22;11481;53.694;9.910;2023-02-28T16:26:49;13.60;99.90
22629;DHT22;11481;53.694;9.910;2023-02-28T16:29:33;13.70;99.90
22629;DHT22;11481;53.694;9.910;2023-02-28T16:32:01;13.40;99.90
22629;DHT22;11481;53.694;9.910;2023-02-28T16:34:30;13.50;99.90
22629;DHT22;11481;53.694;9.910;2023-02-28T16:36:57;13.60;99.90
22629;DHT22;11481;53.694;9.910;2023-02-28T16:39:24;13.60;99.90
22629;DHT22;11481;53.694;9.910;2023-02-28T16:41:51;13.50;99.90
22629;DHT22;11481;53.694;9.910;2023-02-28T16:44:30;13.40;99.90
22629;DHT22;11481;53.694;9.910;2023-02-28T16:47:00;13.20;99.90
22629;DHT22;11481;53.694;9.910;2023-02-28T16:49:26;13.20;99.90
22629;DHT22;11481;53.694;9.910;2023-02-28T16:51:53;13.30;99.90
22629;DHT22;11481;53.694;9.910;2023-02-28T16:54:20;13.30;99.90
22629;DHT22;11481;53.694;9.910;2023-02-28T16:56:48;13.30;99.90
22629;DHT22;11481;53.694;9.910;2023-02-28T16:59:19;13.30;99.90
22629;DHT22;11481;53.694;9.910;2023-02-28T17:01:46;13.10;99.90
22629;DHT22;11481;53.694;9.910;2023-02-28T17:04:13;12.80;99.90
22629;DHT22;11481;53.694;9.910;2023-02-28T17:06:40;12.60;99.90
22629;DHT22;11481;53.694;9.910;2023-02-28T17:09:19;12.60;99.90
22629;DHT22;11481;53.694;9.910;2023-02-28T17:11:49;12.60;99.90
22629;DHT22;11481;53.694;9.910;2023-02-28T17:14:16;12.60;99.90
22629;DHT22;11481;53.694;9.910;2023-02-28T17:16:43;12.50;99.90
22629;DHT22;11481;53.694;9.910;2023-02-28T17:19:13;12.50;99.90
22629;DHT22;11481;53.694;9.910;2023-02-28T17:21:40;12.40;99.90
22629;DHT22;11481;53.694;9.910;2023-02-28T17:24:11;12.50;99.90
22629;DHT22;11481;53.694;9.910;2023-02-28T17:26:50;12.40;99.90
22629;DHT22;11481;53.694;9.910;2023-02-28T17:29:19;12.40;99.90
22629;DHT22;11481;53.694;9.910;2023-02-28T17:31:48;12.30;99.90
22629;DHT22;11481;53.694;9.910;2023-02-28T17:34:14;12.20;99.90
22629;DHT22;11481;53.694;9.910;2023-02-28T17:36:47;12.20;99.90
22629;DHT22;11481;53.694;9.910;2023-02-28T17:39:16;12.10;99.90
22629;DHT22;11481;53.694;9.910;2023-02-28T17:41:52;12.20;99.90
22629;DHT22;11481;53.694;9.910;2023-02-28T17:44:19;11.90;99.90
22629;DHT22;11481;53.694;9.910;2023-02-28T17:46:46;11.70;99.90
22629;DHT22;11481;53.694;9.910;2023-02-28T17:49:13;11.50;99.90
22629;DHT22;11481;53.694;9.910;2023-02-28T17:51:40;11.30;99.90
22629;DHT22;11481;53.694;9.910;2023-02-28T17:54:07;11.30;99.90
22629;DHT22;11481;53.694;9.910;2023-02-28T17:56:33;11.40;99.90
22629;DHT22;11481;53.694;9.910;2023-02-28T17:59:00;11.40;99.90
22629;DHT22;11481;53.694;9.910;2023-02-28T18:01:30;11.40;99.90
22629;DHT22;11481;53.694;9.910;2023-02-28T18:03:56;11.40;99.90
22629;DHT22;11481;53.694;9.910;2023-02-28T18:06:31;11.40;99.90
22629;DHT22;11481;53.694;9.910;2023-02-28T18:08:59;11.30;99.90
22629;DHT22;11481;53.694;9.910;2023-02-28T18:11:25;11.20;99.90
22629;DHT22;11481;53.694;9.910;2023-02-28T18:14:00;11.20;99.90
22629;DHT22;11481;53.694;9.910;2023-02-28T18:16:27;11.00;99.90
22629;DHT22;11481;53.694;9.910;2023-02-28T18:18:54;11.10;99.90
22629;DHT22;11481;53.694;9.910;2023-02-28T18:21:21;11.00;99.90